Mississippi Enterprise — WDE2542 — position and weather

sailwx.info

Track history (hours):
 
Tides and Currents Weather Stations Pressure Air Temp Water Temp Dewpoint Dewpoint Depression Visibility Wind Speed Wind Dir Waves Ship Positions

Mississippi Enterprise

Owner: U.S. United Ocean Services, LLC, Tampa, FL. More information available from US FCC via Universal Licensing System and Coast Guard Vessel Documentation Center.

Last reported at 2015-May-16 06:21 UTC. Time now 2015-May-22 20:43 UTC.
Position N 27°46' W 082°31'.

Length 187 m; draft 7.3 m.

Type: Cargo ship. MMSI: 369813000.

Date/timePositionNaut miles runAvg speedWind from/ knotsBaromVisibWave heightAir tempDewpointWater temp
2015-May-16 06:21N 27°46' W 082°31'6 7.4
2015-May-16 05:33N 27°49' W 082°26'1 0.9
2015-May-16 04:31N 27°48' W 082°25'0 0.0
2015-May-16 03:31N 27°48' W 082°25'0 0.0
2015-May-16 02:31N 27°48' W 082°25'0 0.0
2015-May-16 01:31N 27°48' W 082°25'0 0.0
2015-May-16 00:31N 27°48' W 082°25'0 0.0
2015-May-15 23:31N 27°48' W 082°25'0 0.0
2015-May-15 22:31N 27°48' W 082°25'0 0.0
2015-May-15 21:25N 27°48' W 082°25'0 0.0
2015-May-15 20:22N 27°48' W 082°25'0 0.0
2015-May-15 19:28N 27°48' W 082°25'0 0.0
2015-May-15 18:28N 27°48' W 082°25'0 0.0
2015-May-15 17:31N 27°48' W 082°25'0 0.0
2015-May-15 16:13N 27°48' W 082°25'0 0.0
2015-May-15 15:31N 27°48' W 082°25'0 0.0
2015-May-15 14:31N 27°48' W 082°25'0 0.0
2015-May-15 13:31N 27°48' W 082°25'0 0.0
2015-May-15 12:28N 27°48' W 082°25'0 0.0
2015-May-15 11:04N 27°48' W 082°25'0 0.0
2015-May-15 10:31N 27°48' W 082°25'0 0.0
2015-May-15 09:25N 27°48' W 082°25'0 0.0
2015-May-15 08:31N 27°48' W 082°25'0 0.0
2015-May-15 07:31N 27°48' W 082°25'0 0.0
2015-May-15 06:31N 27°48' W 082°25'0 0.0
2015-May-15 05:31N 27°48' W 082°25'0 0.0
2015-May-15 04:31N 27°48' W 082°25'0 0.0
2015-May-15 03:31N 27°48' W 082°25'0 0.0
2015-May-15 02:31N 27°48' W 082°25'0 0.0
2015-May-15 01:28N 27°48' W 082°25'0 0.0
2015-May-15 00:28N 27°48' W 082°25'0 0.0
2015-May-14 23:31N 27°48' W 082°25'0 0.0
2015-May-14 22:31N 27°48' W 082°25'0 0.0
2015-May-14 21:19N 27°48' W 082°25'0 0.0
2015-May-14 20:07N 27°48' W 082°25'0 0.0
2015-May-14 19:25N 27°48' W 082°25'0 0.0
2015-May-14 18:13N 27°48' W 082°25'0 0.0
2015-May-14 17:25N 27°48' W 082°25'0 0.0
2015-May-14 16:31N 27°48' W 082°25'0 0.0
2015-May-14 15:19N 27°48' W 082°25'0 0.0
2015-May-14 14:31N 27°48' W 082°25'0 0.0
2015-May-14 13:22N 27°48' W 082°25'0 0.0
2015-May-14 12:31N 27°48' W 082°25'0 0.0
2015-May-14 11:31N 27°48' W 082°25'0 0.0
2015-May-14 10:28N 27°48' W 082°25'0 0.0
2015-May-14 09:31N 27°48' W 082°25'0 0.0
2015-May-14 08:28N 27°48' W 082°25'0 0.0
2015-May-14 07:31N 27°48' W 082°25'0 0.0
2015-May-14 06:31N 27°48' W 082°25'0 0.0
2015-May-14 05:31N 27°48' W 082°25'0 0.0
2015-May-14 04:31N 27°48' W 082°25'0 0.0
2015-May-14 03:31N 27°48' W 082°25'0 0.0
2015-May-14 02:31N 27°48' W 082°25'0 0.0
2015-May-14 01:31N 27°48' W 082°25'0 0.0
2015-May-14 00:31N 27°48' W 082°25'0 0.0
2015-May-13 23:31N 27°48' W 082°25'0 0.0
2015-May-13 22:31N 27°48' W 082°25'0 0.0
2015-May-13 21:31N 27°48' W 082°25'0 0.0
2015-May-13 20:31N 27°48' W 082°25'0 0.0
2015-May-13 19:31N 27°48' W 082°25'0 0.0
2015-May-13 18:34N 27°48' W 082°25'0 0.0
2015-May-13 17:33N 27°48' W 082°25'4 4.4
2015-May-13 16:33N 27°48' W 082°30'26 2.3
2015-May-13 05:16N 27°37' W 082°57'0 0.0
2015-May-13 04:33N 27°37' W 082°57'0 0.0
2015-May-13 03:33N 27°37' W 082°57'0 0.0
2015-May-13 02:33N 27°37' W 082°57'  
2015-May-07 18:28N 27°45' W 082°32'7 7.6
2015-May-07 17:33N 27°48' W 082°25'0 0.4
2015-May-07 16:32N 27°48' W 082°25'0 0.0
2015-May-07 15:32N 27°48' W 082°25'0 0.0
2015-May-07 14:29N 27°48' W 082°25'0 0.0
2015-May-07 13:32N 27°48' W 082°25'0 0.0
2015-May-07 12:32N 27°48' W 082°25'0 0.0
2015-May-07 11:32N 27°48' W 082°25'0 0.0
2015-May-07 10:20N 27°48' W 082°25'0 0.0
2015-May-07 09:32N 27°48' W 082°25'0 0.0
2015-May-07 08:32N 27°48' W 082°25'0 0.0
2015-May-07 07:32N 27°48' W 082°25'0 0.0
2015-May-07 06:32N 27°48' W 082°25'0 0.0
2015-May-07 05:32N 27°48' W 082°25'0 0.0
2015-May-07 04:32N 27°48' W 082°25'0 0.0
2015-May-07 03:32N 27°48' W 082°25'0 0.0
2015-May-07 02:32N 27°48' W 082°25'0 0.0
2015-May-07 01:20N 27°48' W 082°25'0 0.0
2015-May-07 00:32N 27°48' W 082°25'0 0.0
2015-May-06 23:29N 27°48' W 082°25'0 0.0
2015-May-06 22:32N 27°48' W 082°25'0 0.0
2015-May-06 21:32N 27°48' W 082°25'0 0.0
2015-May-06 20:32N 27°48' W 082°25'0 0.0
2015-May-06 19:29N 27°48' W 082°25'0 0.0
2015-May-06 18:32N 27°48' W 082°25'0 0.0
2015-May-06 17:32N 27°48' W 082°25'0 0.0
2015-May-06 16:32N 27°48' W 082°25'0 0.0
2015-May-06 15:32N 27°48' W 082°25'0 0.0
2015-May-06 14:32N 27°48' W 082°25'0 0.0
2015-May-06 13:32N 27°48' W 082°25'0 0.0
2015-May-06 12:29N 27°48' W 082°25'0 0.0
2015-May-06 11:26N 27°48' W 082°25'0 0.0
2015-May-06 10:26N 27°48' W 082°25'0 0.0
2015-May-06 09:32N 27°48' W 082°25'0 0.0
2015-May-06 08:26N 27°48' W 082°25'0 0.0
2015-May-06 07:14N 27°48' W 082°25'0 0.0
2015-May-06 06:26N 27°48' W 082°25'  
Track history (hours):
 
Tides and Currents Weather Stations Pressure Air Temp Water Temp Dewpoint Dewpoint Depression Visibility Wind Speed Wind Dir Waves Ship Positions

Mississippi Enterprise

Owner: U.S. United Ocean Services, LLC, Tampa, FL. More information available from US FCC via Universal Licensing System and Coast Guard Vessel Documentation Center.

Last reported at 2015-May-16 06:21 UTC. Time now 2015-May-22 20:43 UTC.
Position N 27°46' W 082°31'.

Length 187 m; draft 7.3 m.

Type: Cargo ship. MMSI: 369813000.

Date/timePositionNaut miles runAvg speedWind from/ knotsBaromVisibWave heightAir tempDewpointWater temp
2015-May-16 06:21N 27°46' W 082°31'6 7.4
2015-May-16 05:33N 27°49' W 082°26'1 0.9
2015-May-16 04:31N 27°48' W 082°25'0 0.0
2015-May-16 03:31N 27°48' W 082°25'0 0.0
2015-May-16 02:31N 27°48' W 082°25'0 0.0
2015-May-16 01:31N 27°48' W 082°25'0 0.0
2015-May-16 00:31N 27°48' W 082°25'0 0.0
2015-May-15 23:31N 27°48' W 082°25'0 0.0
2015-May-15 22:31N 27°48' W 082°25'0 0.0
2015-May-15 21:25N 27°48' W 082°25'0 0.0
2015-May-15 20:22N 27°48' W 082°25'0 0.0
2015-May-15 19:28N 27°48' W 082°25'0 0.0
2015-May-15 18:28N 27°48' W 082°25'0 0.0
2015-May-15 17:31N 27°48' W 082°25'0 0.0
2015-May-15 16:13N 27°48' W 082°25'0 0.0
2015-May-15 15:31N 27°48' W 082°25'0 0.0
2015-May-15 14:31N 27°48' W 082°25'0 0.0
2015-May-15 13:31N 27°48' W 082°25'0 0.0
2015-May-15 12:28N 27°48' W 082°25'0 0.0
2015-May-15 11:04N 27°48' W 082°25'0 0.0
2015-May-15 10:31N 27°48' W 082°25'0 0.0
2015-May-15 09:25N 27°48' W 082°25'0 0.0
2015-May-15 08:31N 27°48' W 082°25'0 0.0
2015-May-15 07:31N 27°48' W 082°25'0 0.0
2015-May-15 06:31N 27°48' W 082°25'0 0.0
2015-May-15 05:31N 27°48' W 082°25'0 0.0
2015-May-15 04:31N 27°48' W 082°25'0 0.0
2015-May-15 03:31N 27°48' W 082°25'0 0.0
2015-May-15 02:31N 27°48' W 082°25'0 0.0
2015-May-15 01:28N 27°48' W 082°25'0 0.0
2015-May-15 00:28N 27°48' W 082°25'0 0.0
2015-May-14 23:31N 27°48' W 082°25'0 0.0
2015-May-14 22:31N 27°48' W 082°25'0 0.0
2015-May-14 21:19N 27°48' W 082°25'0 0.0
2015-May-14 20:07N 27°48' W 082°25'0 0.0
2015-May-14 19:25N 27°48' W 082°25'0 0.0
2015-May-14 18:13N 27°48' W 082°25'0 0.0
2015-May-14 17:25N 27°48' W 082°25'0 0.0
2015-May-14 16:31N 27°48' W 082°25'0 0.0
2015-May-14 15:19N 27°48' W 082°25'0 0.0
2015-May-14 14:31N 27°48' W 082°25'0 0.0
2015-May-14 13:22N 27°48' W 082°25'0 0.0
2015-May-14 12:31N 27°48' W 082°25'0 0.0
2015-May-14 11:31N 27°48' W 082°25'0 0.0
2015-May-14 10:28N 27°48' W 082°25'0 0.0
2015-May-14 09:31N 27°48' W 082°25'0 0.0
2015-May-14 08:28N 27°48' W 082°25'0 0.0
2015-May-14 07:31N 27°48' W 082°25'0 0.0
2015-May-14 06:31N 27°48' W 082°25'0 0.0
2015-May-14 05:31N 27°48' W 082°25'0 0.0
2015-May-14 04:31N 27°48' W 082°25'0 0.0
2015-May-14 03:31N 27°48' W 082°25'0 0.0
2015-May-14 02:31N 27°48' W 082°25'0 0.0
2015-May-14 01:31N 27°48' W 082°25'0 0.0
2015-May-14 00:31N 27°48' W 082°25'0 0.0
2015-May-13 23:31N 27°48' W 082°25'0 0.0
2015-May-13 22:31N 27°48' W 082°25'0 0.0
2015-May-13 21:31N 27°48' W 082°25'0 0.0
2015-May-13 20:31N 27°48' W 082°25'0 0.0
2015-May-13 19:31N 27°48' W 082°25'0 0.0
2015-May-13 18:34N 27°48' W 082°25'0 0.0
2015-May-13 17:33N 27°48' W 082°25'4 4.4
2015-May-13 16:33N 27°48' W 082°30'26 2.3
2015-May-13 05:16N 27°37' W 082°57'0 0.0
2015-May-13 04:33N 27°37' W 082°57'0 0.0
2015-May-13 03:33N 27°37' W 082°57'0 0.0
2015-May-13 02:33N 27°37' W 082°57'  
2015-May-07 18:28N 27°45' W 082°32'7 7.6
2015-May-07 17:33N 27°48' W 082°25'0 0.4
2015-May-07 16:32N 27°48' W 082°25'0 0.0
2015-May-07 15:32N 27°48' W 082°25'0 0.0
2015-May-07 14:29N 27°48' W 082°25'0 0.0
2015-May-07 13:32N 27°48' W 082°25'0 0.0
2015-May-07 12:32N 27°48' W 082°25'0 0.0
2015-May-07 11:32N 27°48' W 082°25'0 0.0
2015-May-07 10:20N 27°48' W 082°25'0 0.0
2015-May-07 09:32N 27°48' W 082°25'0 0.0
2015-May-07 08:32N 27°48' W 082°25'0 0.0
2015-May-07 07:32N 27°48' W 082°25'0 0.0
2015-May-07 06:32N 27°48' W 082°25'0 0.0
2015-May-07 05:32N 27°48' W 082°25'0 0.0
2015-May-07 04:32N 27°48' W 082°25'0 0.0
2015-May-07 03:32N 27°48' W 082°25'0 0.0
2015-May-07 02:32N 27°48' W 082°25'0 0.0
2015-May-07 01:20N 27°48' W 082°25'0 0.0
2015-May-07 00:32N 27°48' W 082°25'0 0.0
2015-May-06 23:29N 27°48' W 082°25'0 0.0
2015-May-06 22:32N 27°48' W 082°25'0 0.0
2015-May-06 21:32N 27°48' W 082°25'0 0.0
2015-May-06 20:32N 27°48' W 082°25'0 0.0
2015-May-06 19:29N 27°48' W 082°25'0 0.0
2015-May-06 18:32N 27°48' W 082°25'0 0.0
2015-May-06 17:32N 27°48' W 082°25'0 0.0
2015-May-06 16:32N 27°48' W 082°25'0 0.0
2015-May-06 15:32N 27°48' W 082°25'0 0.0
2015-May-06 14:32N 27°48' W 082°25'0 0.0
2015-May-06 13:32N 27°48' W 082°25'0 0.0
2015-May-06 12:29N 27°48' W 082°25'0 0.0
2015-May-06 11:26N 27°48' W 082°25'0 0.0
2015-May-06 10:26N 27°48' W 082°25'0 0.0
2015-May-06 09:32N 27°48' W 082°25'0 0.0
2015-May-06 08:26N 27°48' W 082°25'0 0.0
2015-May-06 07:14N 27°48' W 082°25'0 0.0
2015-May-06 06:26N 27°48' W 082°25'  

Dump ship's entire track history